In Rescue
 
Open Full Screen Window  High Contrast Mode
Wind Gusting 16 knots
12
November 29, 2022 9:29 AM CST
Weather Information
Wind Direction
  290 °
Wind Speed
  12 kt (14 mph)
Wind Gust
  16 kt (18 mph)
Variable Wind
270°
330°
Altimeter
29.77 in
Visibility
10 SM
Temperature
-05° C
23° F
Dewpoint
-12° C
10° F
Humidity
58%
1hr Rain Fall
00.00 in.
24hr Rain Fall
00.00 in.
Sky Condition
Scattered @ 8,000 ft
VFR

METAR KCNB 291529Z AUTO 29012G16KT 270V330 10SM SCT080 M05/M12 A2977 RMK AO2 T10511117

FAA Disclaimer: The data displayed is for advisory purposes only and is not to be used for flight planning or operations.